Time;durP1;ratioP1;P1;durP2;ratioP2;P2;SDS_P1;SDS_P2;PMS_P1;PMS_P2;Temp;Humidity;BMP_temperature;BMP_pressure;BME280_temperature;BME280_humidity;BME280_pressure;Samples;Min_cycle;Max_cycle;Signal;HPM_P1;HPM_P2
2023/01/10 00:01:55;;;;;;;32.80;5.67;;;4.20;98.30;;;;;;5086956;28;20393;-90
2023/01/10 00:04:21;;;;;;;31.00;5.18;;;4.40;98.40;;;;;;5086158;28;20488;-90
2023/01/10 00:06:46;;;;;;;29.77;4.90;;;4.20;98.40;;;;;;5086625;28;20483;-89
2023/01/10 00:09:12;;;;;;;31.87;6.00;;;4.30;98.50;;;;;;5086173;28;20462;-90
2023/01/10 00:14:22;;;;;;;29.17;5.28;;;4.40;98.50;;;;;;5104167;28;20400;-91
2023/01/10 00:16:47;;;;;;;33.45;5.13;;;4.40;98.50;;;;;;5086064;28;20444;-90
2023/01/10 00:19:13;;;;;;;28.55;4.75;;;4.50;98.50;;;;;;5103897;28;20781;-90
2023/01/10 00:21:39;;;;;;;30.87;5.57;;;4.60;98.40;;;;;;5085669;28;20459;-90
2023/01/10 00:24:22;;;;;;;34.13;6.33;;;4.60;98.60;;;;;;5089475;28;20487;-89
2023/01/10 00:26:52;;;;;;;39.40;6.15;;;4.70;98.70;;;;;;5090635;28;20491;-92
2023/01/10 00:29:26;;;;;;;27.85;5.30;;;4.80;98.70;;;;;;5089611;28;20392;-90
2023/01/10 00:31:52;;;;;;;32.28;5.25;;;4.90;98.60;;;;;;5090298;28;20445;-90
2023/01/10 00:34:18;;;;;;;30.95;5.05;;;5.00;98.70;;;;;;5106256;28;20435;-91
2023/01/10 00:36:46;;;;;;;27.25;4.32;;;5.00;98.60;;;;;;5107115;28;20443;-89
2023/01/10 00:39:11;;;;;;;31.75;4.63;;;5.10;98.60;;;;;;5090008;28;20408;-91
2023/01/10 00:44:23;;;;;;;30.43;4.00;;;5.10;98.50;;;;;;5106962;28;20436;-91
2023/01/10 00:46:48;;;;;;;26.83;3.70;;;5.20;98.40;;;;;;5089331;28;20447;-91
2023/01/10 00:49:15;;;;;;;31.88;4.00;;;5.20;98.20;;;;;;5107571;28;20468;-91
2023/01/10 00:51:41;;;;;;;30.55;4.15;;;5.30;98.10;;;;;;5106130;28;20452;-89
2023/01/10 00:54:11;;;;;;;31.88;4.40;;;5.30;98.10;;;;;;5089843;28;21000;-91
2023/01/10 00:56:37;;;;;;;29.00;4.07;;;5.30;98.00;;;;;;5089050;28;20420;-91
2023/01/10 00:59:03;;;;;;;29.35;4.03;;;5.30;98.10;;;;;;5089261;28;20404;-91
2023/01/10 01:01:29;;;;;;;34.28;4.43;;;5.30;98.00;;;;;;5089942;28;20743;-91
2023/01/10 01:03:55;;;;;;;28.02;4.13;;;5.30;97.70;;;;;;5089180;28;20482;-90
2023/01/10 01:06:20;;;;;;;29.42;4.22;;;5.30;97.80;;;;;;5089915;28;20411;-88
2023/01/10 01:08:46;;;;;;;25.83;3.63;;;5.30;97.60;;;;;;5089066;28;20423;-91
2023/01/10 01:11:11;;;;;;;28.27;4.37;;;5.30;97.60;;;;;;5106457;28;20713;-90
2023/01/10 01:13:37;;;;;;;27.27;3.97;;;5.40;97.70;;;;;;5088681;28;20434;-92
2023/01/10 01:16:03;;;;;;;29.08;4.50;;;5.40;97.80;;;;;;5106587;28;20388;-91
2023/01/10 01:18:29;;;;;;;26.42;4.07;;;5.40;97.90;;;;;;5088747;28;20414;-90
2023/01/10 01:20:56;;;;;;;25.60;3.63;;;5.40;97.80;;;;;;5089309;28;20910;-90
2023/01/10 01:23:23;;;;;;;28.67;3.83;;;5.40;97.70;;;;;;5089549;28;20408;-90
2023/01/10 01:25:53;;;;;;;31.15;4.10;;;5.40;97.60;;;;;;5088420;28;20396;-91
2023/01/10 01:28:19;;;;;;;28.25;4.55;;;5.40;97.70;;;;;;5089120;28;20409;-90
2023/01/10 01:30:45;;;;;;;29.50;4.60;;;5.50;97.70;;;;;;5088139;28;20419;-90
2023/01/10 01:33:10;;;;;;;27.30;4.55;;;5.50;97.90;;;;;;5089700;28;20793;-91
2023/01/10 01:35:36;;;;;;;25.83;4.40;;;5.50;97.80;;;;;;5087838;28;20401;-90
2023/01/10 01:38:02;;;;;;;21.80;3.53;;;5.50;97.80;;;;;;5088843;28;20902;-89
2023/01/10 01:40:27;;;;;;;30.90;4.20;;;5.60;97.90;;;;;;5089224;28;20407;-92
2023/01/10 01:42:54;;;;;;;24.10;3.78;;;5.70;97.90;;;;;;5088050;28;20871;-92
2023/01/10 01:45:23;;;;;;;24.20;3.50;;;5.70;97.90;;;;;;5089147;28;20408;-89
2023/01/10 01:47:52;;;;;;;24.08;3.72;;;5.70;98.00;;;;;;5087704;28;20483;-91
2023/01/10 01:50:43;;;;;;;21.80;3.30;;;5.80;98.00;;;;;;5088913;28;20962;-90
2023/01/10 01:53:33;;;;;;;23.13;3.80;;;5.80;97.90;;;;;;5105529;28;20923;-90
2023/01/10 01:56:06;;;;;;;18.30;3.65;;;5.90;97.90;;;;;;5087935;28;20428;-89
2023/01/10 01:58:59;;;;;;;21.02;3.45;;;5.80;97.80;;;;;;5088923;28;20911;-91
2023/01/10 02:01:26;;;;;;;25.35;3.78;;;5.90;97.80;;;;;;5099070;28;20412;-90
2023/01/10 02:04:00;;;;;;;24.77;3.20;;;5.80;97.70;;;;;;5088577;28;20404;-90
2023/01/10 02:06:26;;;;;;;22.85;3.88;;;5.80;97.70;;;;;;5105837;28;20400;-91
2023/01/10 02:09:01;;;;;;;25.85;3.92;;;5.80;97.60;;;;;;5087776;28;20408;-91
2023/01/10 02:11:28;;;;;;;27.85;4.25;;;5.80;97.70;;;;;;5105842;28;20477;-90
2023/01/10 02:13:56;;;;;;;24.27;4.53;;;5.80;97.70;;;;;;5104311;28;20400;-90
2023/01/10 02:16:21;;;;;;;30.20;5.00;;;5.80;97.80;;;;;;5088444;28;20484;-90
2023/01/10 02:18:47;;;;;;;25.17;4.57;;;6.10;97.90;;;;;;5087318;28;20949;-91
2023/01/10 02:21:40;;;;;;;24.85;5.13;;;6.00;97.80;;;;;;5088081;28;20402;-89
2023/01/10 02:24:26;;;;;;;28.15;5.18;;;5.90;97.80;;;;;;5088485;28;20470;-90
2023/01/10 02:27:09;;;;;;;26.90;4.22;;;6.00;97.80;;;;;;5087127;28;20503;-90
2023/01/10 02:29:59;;;;;;;34.03;4.82;;;6.00;97.80;;;;;;5087786;28;20518;-91
2023/01/10 02:32:25;;;;;;;35.17;5.43;;;6.00;97.80;;;;;;5087607;28;20432;-88
2023/01/10 02:35:06;;;;;;;29.33;4.53;;;6.00;97.80;;;;;;5104043;28;20483;-90
2023/01/10 02:38:02;;;;;;;29.23;4.30;;;6.10;97.90;;;;;;5087866;28;20473;-90
2023/01/10 02:40:35;;;;;;;24.75;4.15;;;6.10;97.90;;;;;;5087413;28;20408;-90
2023/01/10 02:43:20;;;;;;;23.77;4.57;;;6.00;97.90;;;;;;5087484;28;20409;-89
2023/01/10 02:45:59;;;;;;;24.65;3.78;;;6.10;98.00;;;;;;5104341;28;20412;-89
2023/01/10 02:48:25;;;;;;;28.60;4.90;;;6.10;98.00;;;;;;5086613;28;20447;-91
2023/01/10 02:50:57;;;;;;;24.15;4.30;;;6.10;98.00;;;;;;5087938;28;20457;-91
2023/01/10 02:54:06;;;;;;;27.67;4.80;;;6.10;98.10;;;;;;5086653;28;20499;-90
2023/01/10 02:56:53;;;;;;;26.67;4.80;;;6.20;98.10;;;;;;5086747;28;20438;-90
2023/01/10 02:59:34;;;;;;;28.10;4.57;;;6.20;98.10;;;;;;5087234;28;20404;-89
2023/01/10 03:02:28;;;;;;;28.58;5.07;;;6.20;98.20;;;;;;5104113;28;20926;-90
2023/01/10 03:05:01;;;;;;;34.78;5.80;;;6.20;98.10;;;;;;5086998;28;20408;-90
2023/01/10 03:07:48;;;;;;;33.80;5.78;;;6.30;98.20;;;;;;5087004;28;20400;-90
2023/01/10 03:10:46;;;;;;;36.17;5.80;;;6.30;98.20;;;;;;5081654;28;20451;-89
2023/01/10 03:13:18;;;;;;;30.33;5.53;;;6.30;98.30;;;;;;5086933;28;20408;-91
2023/01/10 03:15:47;;;;;;;43.10;6.15;;;6.40;98.20;;;;;;5103937;28;20396;-89
2023/01/10 03:18:19;;;;;;;30.63;4.97;;;6.30;98.10;;;;;;5086786;28;20763;-89
2023/01/10 03:20:47;;;;;;;31.85;4.97;;;6.40;98.00;;;;;;5087377;28;20411;-89
2023/01/10 03:23:15;;;;;;;27.13;4.97;;;6.40;98.00;;;;;;5103036;28;20400;-91
2023/01/10 03:25:43;;;;;;;34.28;5.43;;;6.40;98.00;;;;;;5087112;28;20405;-89
2023/01/10 03:28:18;;;;;;;24.92;4.68;;;6.40;97.90;;;;;;5103484;28;20403;-90
2023/01/10 03:30:53;;;;;;;34.35;5.53;;;6.40;98.00;;;;;;5086984;28;22457;-91
2023/01/10 03:33:26;;;;;;;26.10;5.60;;;6.40;98.00;;;;;;5103800;28;20440;-89
2023/01/10 03:36:00;;;;;;;27.90;4.82;;;6.40;98.00;;;;;;5086195;28;21013;-90
2023/01/10 03:38:42;;;;;;;27.85;5.30;;;6.40;97.90;;;;;;5087205;28;20436;-90
2023/01/10 03:41:37;;;;;;;29.70;5.60;;;6.40;97.80;;;;;;5086325;28;20461;-89
2023/01/10 03:47:28;;;;;;;30.25;5.03;;;6.20;97.60;;;;;;5103876;28;20407;-90
2023/01/10 03:50:21;;;;;;;27.35;4.78;;;6.20;97.70;;;;;;5103105;28;20501;-90
2023/01/10 03:52:46;;;;;;;27.57;4.97;;;6.20;97.60;;;;;;5083043;28;20462;-90
2023/01/10 03:55:17;;;;;;;26.67;4.80;;;6.10;97.60;;;;;;5104322;28;20517;-88
2023/01/10 03:57:44;;;;;;;25.73;5.18;;;6.10;97.70;;;;;;5103114;28;20400;-89
2023/01/10 04:00:11;;;;;;;25.85;4.78;;;6.00;97.90;;;;;;5091208;28;20396;-89
2023/01/10 04:02:36;;;;;;;26.90;4.75;;;6.10;97.90;;;;;;5107232;28;20388;-89
2023/01/10 04:05:02;;;;;;;23.30;5.22;;;6.10;97.80;;;;;;5090826;28;20498;-89
2023/01/10 04:07:28;;;;;;;26.58;4.47;;;6.10;97.80;;;;;;5090360;28;20392;-90
2023/01/10 04:09:53;;;;;;;30.67;4.87;;;6.30;97.90;;;;;;5090450;28;20408;-90
2023/01/10 04:12:19;;;;;;;27.33;4.97;;;6.00;97.80;;;;;;5090243;28;20428;-90
2023/01/10 04:14:45;;;;;;;25.63;4.63;;;6.00;97.80;;;;;;5089941;28;20480;-90
2023/01/10 04:17:13;;;;;;;29.38;5.20;;;6.00;97.90;;;;;;5107746;28;20404;-89
2023/01/10 04:19:38;;;;;;;34.20;6.47;;;6.00;98.00;;;;;;5089157;28;20396;-90
2023/01/10 04:22:04;;;;;;;34.27;6.60;;;6.10;98.20;;;;;;5090986;28;20445;-91
2023/01/10 04:24:30;;;;;;;35.90;7.00;;;6.10;98.40;;;;;;5089887;28;20949;-90
2023/01/10 04:26:56;;;;;;;39.67;7.07;;;6.10;98.40;;;;;;5090363;28;20522;-90
2023/01/10 04:29:22;;;;;;;45.28;7.50;;;6.10;98.50;;;;;;5090585;28;20400;-90
2023/01/10 04:31:48;;;;;;;33.55;6.22;;;6.20;98.50;;;;;;5106849;28;20454;-89
2023/01/10 04:34:13;;;;;;;25.65;4.60;;;6.20;98.50;;;;;;5090658;28;20486;-90
2023/01/10 04:36:39;;;;;;;27.48;4.72;;;6.20;98.40;;;;;;5089660;28;20457;-91
2023/01/10 04:39:05;;;;;;;27.00;4.70;;;6.20;98.30;;;;;;5090241;28;20408;-90
2023/01/10 04:41:30;;;;;;;23.57;4.20;;;6.10;98.20;;;;;;5089165;28;20404;-90
2023/01/10 04:43:56;;;;;;;33.28;5.25;;;6.10;98.10;;;;;;5092760;27;20523;-91
2023/01/10 04:46:22;;;;;;;27.67;5.00;;;6.10;98.10;;;;;;5093160;27;20600;-89
2023/01/10 04:48:47;;;;;;;27.73;5.70;;;6.10;98.20;;;;;;5092802;27;20390;-90
2023/01/10 04:51:13;;;;;;;32.10;5.77;;;6.10;98.40;;;;;;5093191;27;20419;-89
2023/01/10 04:53:38;;;;;;;30.58;5.43;;;6.20;98.40;;;;;;5109518;27;20418;-91
2023/01/10 04:56:06;;;;;;;29.45;5.90;;;6.20;98.40;;;;;;5110570;27;20391;-92
2023/01/10 04:58:33;;;;;;;35.40;6.05;;;6.20;98.40;;;;;;5092028;27;20485;-91
2023/01/10 05:00:59;;;;;;;26.67;5.70;;;6.20;98.40;;;;;;5110505;27;20386;-91
2023/01/10 05:03:24;;;;;;;28.43;6.30;;;6.30;98.40;;;;;;5092110;27;20435;-91
2023/01/10 05:05:50;;;;;;;22.75;5.70;;;6.30;98.40;;;;;;5092540;27;20394;-90
2023/01/10 05:08:16;;;;;;;23.30;4.85;;;6.30;98.40;;;;;;5093319;27;20881;-92
2023/01/10 05:10:41;;;;;;;25.27;5.27;;;6.20;98.30;;;;;;5090870;27;20455;-89
2023/01/10 05:13:07;;;;;;;22.17;4.75;;;6.20;98.30;;;;;;5110221;27;20395;-92
2023/01/10 05:15:32;;;;;;;27.25;5.47;;;6.20;98.40;;;;;;5091921;27;20394;-91
2023/01/10 05:17:59;;;;;;;22.50;4.57;;;6.50;98.50;;;;;;5093427;27;20407;-91
2023/01/10 05:20:24;;;;;;;23.85;4.97;;;6.30;98.90;;;;;;5092188;27;20695;-91
2023/01/10 05:22:50;;;;;;;21.37;4.03;;;6.30;98.90;;;;;;5110128;27;20406;-91
2023/01/10 05:25:15;;;;;;;25.80;4.90;;;6.30;98.60;;;;;;5091991;27;20757;-90
2023/01/10 05:27:42;;;;;;;23.15;5.07;;;6.50;98.60;;;;;;5092252;27;20449;-91
2023/01/10 05:30:10;;;;;;;15.48;3.67;;;6.20;98.40;;;;;;5093096;27;20472;-90
2023/01/10 05:32:36;;;;;;;21.03;3.83;;;6.30;98.40;;;;;;5092082;27;20426;-90
2023/01/10 05:35:01;;;;;;;20.43;4.50;;;6.20;98.40;;;;;;5109889;27;20403;-92
2023/01/10 05:37:27;;;;;;;26.02;5.55;;;6.20;98.30;;;;;;5108792;27;20749;-91
2023/01/10 05:39:52;;;;;;;21.13;4.53;;;6.20;98.30;;;;;;5093337;27;20499;-91
2023/01/10 05:42:18;;;;;;;17.67;3.90;;;6.20;98.40;;;;;;5091422;27;20409;-92
2023/01/10 05:44:43;;;;;;;30.00;4.63;;;6.20;98.40;;;;;;5092199;27;20399;-90
2023/01/10 05:47:09;;;;;;;23.13;4.90;;;6.20;98.50;;;;;;5092407;27;20398;-91
2023/01/10 05:49:35;;;;;;;18.13;3.60;;;6.20;98.50;;;;;;5092282;27;20429;-93
2023/01/10 05:52:00;;;;;;;19.55;4.30;;;6.20;98.40;;;;;;5092454;27;20431;-91
2023/01/10 05:54:28;;;;;;;16.17;3.53;;;6.20;98.40;;;;;;5108465;27;20390;-92
2023/01/10 05:56:54;;;;;;;20.97;3.63;;;6.30;98.40;;;;;;5092040;27;20403;-92
2023/01/10 05:59:20;;;;;;;15.95;3.00;;;6.10;98.40;;;;;;5107929;27;20731;-92
2023/01/10 06:01:45;;;;;;;17.57;3.47;;;6.20;98.40;;;;;;5109342;27;20402;-92
2023/01/10 06:04:11;;;;;;;17.35;2.90;;;6.30;98.40;;;;;;5108652;27;20761;-89
2023/01/10 06:06:36;;;;;;;16.70;3.30;;;6.30;98.40;;;;;;5091868;27;20398;-91
2023/01/10 06:09:02;;;;;;;17.70;2.90;;;6.20;98.40;;;;;;5092140;27;20395;-92
2023/01/10 06:11:28;;;;;;;19.20;3.97;;;6.20;98.30;;;;;;5090827;27;21012;-92
2023/01/10 06:13:57;;;;;;;23.85;3.53;;;6.20;98.20;;;;;;5092150;27;20399;-91
2023/01/10 06:16:24;;;;;;;14.63;2.90;;;6.10;98.10;;;;;;5090650;27;20394;-91
2023/01/10 06:18:49;;;;;;;17.58;3.58;;;6.00;97.80;;;;;;5091892;27;20412;-91
2023/01/10 06:21:15;;;;;;;18.20;4.20;;;5.90;97.60;;;;;;5090430;27;20417;-91
2023/01/10 06:23:41;;;;;;;21.75;4.47;;;5.80;97.60;;;;;;5091181;27;20413;-91
2023/01/10 06:26:07;;;;;;;20.47;4.00;;;5.70;97.60;;;;;;5091897;27;20522;-90
2023/01/10 06:28:32;;;;;;;20.63;4.77;;;5.60;97.70;;;;;;5091168;27;20410;-90
2023/01/10 06:30:58;;;;;;;22.55;4.85;;;5.50;97.80;;;;;;5091772;27;20422;-91
2023/01/10 06:33:23;;;;;;;32.35;5.15;;;5.50;97.90;;;;;;5090923;27;20913;-91
2023/01/10 06:35:49;;;;;;;27.53;5.00;;;5.40;98.10;;;;;;5091645;27;20592;-91
2023/01/10 06:38:15;;;;;;;27.60;5.57;;;5.40;98.10;;;;;;5090329;27;20546;-91
2023/01/10 06:40:40;;;;;;;22.83;5.70;;;5.40;98.20;;;;;;5091983;27;20399;-91
2023/01/10 06:43:06;;;;;;;28.08;6.13;;;5.30;98.20;;;;;;5090602;27;20455;-91
2023/01/10 06:45:32;;;;;;;26.93;6.30;;;5.40;98.50;;;;;;5107631;27;20418;-91
2023/01/10 06:47:58;;;;;;;24.93;5.37;;;5.40;98.70;;;;;;5091254;27;20407;-91
2023/01/10 06:50:23;;;;;;;28.10;5.93;;;5.40;98.70;;;;;;5090084;27;20420;-90
2023/01/10 06:52:56;;;;;;;25.58;5.90;;;5.40;98.70;;;;;;5091163;27;20418;-90
2023/01/10 06:55:22;;;;;;;24.55;5.70;;;5.40;98.70;;;;;;5090170;27;20410;-89
2023/01/10 06:57:48;;;;;;;30.77;6.50;;;5.50;98.80;;;;;;5090817;27;20610;-90
2023/01/10 07:00:14;;;;;;;30.42;7.60;;;5.50;98.80;;;;;;5090335;27;20395;-90
2023/01/10 07:02:39;;;;;;;32.40;7.63;;;5.50;98.80;;;;;;5090311;27;20463;-90
2023/01/10 07:05:05;;;;;;;30.10;6.97;;;5.60;98.90;;;;;;5090727;27;20425;-91
2023/01/10 07:07:31;;;;;;;32.85;7.55;;;5.70;98.90;;;;;;5090051;27;20402;-89
2023/01/10 07:09:58;;;;;;;38.63;8.40;;;5.70;98.90;;;;;;5090710;27;20449;-90
2023/01/10 07:12:24;;;;;;;40.13;9.35;;;5.70;98.80;;;;;;5089589;27;20499;-91
2023/01/10 07:14:49;;;;;;;33.27;9.00;;;5.70;98.70;;;;;;5091313;28;20559;-90
2023/01/10 07:17:15;;;;;;;44.23;9.93;;;5.70;98.60;;;;;;5089781;27;20402;-90
2023/01/10 07:19:41;;;;;;;41.35;9.38;;;5.70;98.70;;;;;;5091059;28;20406;-89
2023/01/10 07:22:06;;;;;;;44.07;9.53;;;5.90;98.70;;;;;;5090063;27;20451;-90
2023/01/10 07:24:33;;;;;;;45.80;10.03;;;5.80;98.70;;;;;;5090229;27;20413;-92
2023/01/10 07:26:58;;;;;;;42.63;9.18;;;5.80;98.70;;;;;;5107367;28;20481;-90
2023/01/10 07:29:24;;;;;;;42.40;8.85;;;6.20;98.70;;;;;;5090384;28;20437;-90
2023/01/10 07:31:51;;;;;;;45.53;9.80;;;5.80;98.60;;;;;;5090875;27;20414;-90
2023/01/10 07:34:16;;;;;;;47.88;10.20;;;5.70;98.50;;;;;;5093051;27;20401;-90
2023/01/10 07:36:42;;;;;;;47.72;11.82;;;5.80;98.50;;;;;;5112280;27;20406;-90
2023/01/10 07:39:07;;;;;;;58.07;13.23;;;5.90;98.60;;;;;;5093661;27;20422;-90
2023/01/10 07:41:33;;;;;;;51.40;11.37;;;6.50;98.80;;;;;;5094343;27;20393;-89
2023/01/10 07:43:59;;;;;;;48.53;10.43;;;5.70;98.60;;;;;;5111681;27;20471;-90
2023/01/10 07:46:25;;;;;;;43.38;9.55;;;5.90;98.60;;;;;;5093924;27;20427;-91
2023/01/10 07:48:51;;;;;;;43.22;8.65;;;6.00;98.60;;;;;;5111445;27;20410;-89
2023/01/10 07:51:16;;;;;;;44.75;8.10;;;5.90;98.50;;;;;;5093308;27;20427;-90
2023/01/10 07:53:42;;;;;;;39.85;9.15;;;5.90;98.40;;;;;;5094615;27;20405;-90
2023/01/10 07:56:08;;;;;;;49.10;8.40;;;5.90;98.50;;;;;;5093684;27;20390;-91
2023/01/10 07:58:34;;;;;;;39.75;7.80;;;5.90;98.40;;;;;;5111547;27;20395;-90
2023/01/10 08:01:01;;;;;;;36.35;8.30;;;5.90;98.60;;;;;;5093886;27;20401;-90
2023/01/10 08:03:28;;;;;;;36.67;7.65;;;5.80;98.40;;;;;;5093191;27;20444;-90
2023/01/10 08:06:05;;;;;;;40.03;7.45;;;5.90;98.30;;;;;;5110933;27;20394;-90
2023/01/10 08:08:33;;;;;;;36.53;6.78;;;5.90;98.40;;;;;;5093753;27;20796;-90
2023/01/10 08:10:59;;;;;;;37.05;8.07;;;5.90;98.30;;;;;;5094137;27;20475;-92
2023/01/10 08:13:25;;;;;;;36.92;7.40;;;5.90;98.40;;;;;;5092996;27;20407;-90
2023/01/10 08:15:51;;;;;;;37.17;7.68;;;5.90;98.20;;;;;;5094019;27;20455;-89
2023/01/10 08:18:18;;;;;;;36.08;7.80;;;5.90;98.10;;;;;;5110185;27;20438;-90
2023/01/10 08:20:46;;;;;;;32.35;7.20;;;5.80;98.00;;;;;;5093510;27;20398;-89
2023/01/10 08:23:13;;;;;;;37.45;7.10;;;5.80;98.00;;;;;;5093957;27;20468;-89
2023/01/10 08:25:38;;;;;;;33.25;6.50;;;6.10;98.10;;;;;;5093428;27;20422;-90
2023/01/10 08:28:04;;;;;;;34.78;6.80;;;6.00;98.10;;;;;;5093749;27;20455;-90
2023/01/10 08:30:29;;;;;;;35.40;7.03;;;5.70;98.00;;;;;;5092572;27;20455;-90
2023/01/10 08:32:55;;;;;;;36.33;7.30;;;5.80;98.00;;;;;;5094031;27;20831;-90
2023/01/10 08:35:21;;;;;;;28.65;6.22;;;5.70;98.00;;;;;;5092634;27;20410;-89
2023/01/10 08:37:46;;;;;;;36.58;7.00;;;5.70;98.00;;;;;;5093472;27;20401;-90
2023/01/10 08:40:12;;;;;;;33.47;6.00;;;5.80;98.00;;;;;;5093352;27;20394;-88
2023/01/10 08:42:38;;;;;;;36.03;7.07;;;5.80;97.90;;;;;;5092658;27;20486;-90
2023/01/10 08:45:04;;;;;;;30.95;6.93;;;5.80;97.90;;;;;;5089498;28;20417;-90
2023/01/10 08:47:29;;;;;;;34.00;6.63;;;5.90;97.80;;;;;;5089054;28;20392;-89
2023/01/10 08:49:55;;;;;;;34.90;7.05;;;5.90;97.80;;;;;;5089685;28;20420;-89
2023/01/10 08:52:21;;;;;;;26.83;5.93;;;5.90;97.70;;;;;;5106062;28;20424;-90
2023/01/10 08:54:46;;;;;;;30.43;6.33;;;5.90;97.70;;;;;;5089857;28;20561;-89
2023/01/10 08:57:12;;;;;;;25.08;6.30;;;6.00;97.70;;;;;;5088915;28;20404;-89
2023/01/10 08:59:38;;;;;;;31.48;6.63;;;6.00;97.60;;;;;;5088964;28;20408;-89
2023/01/10 09:02:04;;;;;;;30.17;6.30;;;6.10;97.50;;;;;;5106520;28;20409;-88
2023/01/10 09:04:30;;;;;;;34.00;7.73;;;6.20;97.60;;;;;;5088687;28;20404;-90
2023/01/10 09:06:56;;;;;;;28.98;5.60;;;6.30;97.50;;;;;;5089299;28;20443;-87
2023/01/10 09:09:21;;;;;;;26.02;5.05;;;6.50;97.30;;;;;;5088192;28;20441;-90
2023/01/10 09:11:47;;;;;;;23.88;4.55;;;6.40;97.00;;;;;;5106084;28;20463;-89
2023/01/10 09:14:14;;;;;;;28.42;5.85;;;6.50;96.90;;;;;;5088340;28;20397;-89
2023/01/10 09:16:40;;;;;;;23.13;5.40;;;6.50;96.80;;;;;;5105924;28;20392;-88
2023/01/10 09:19:06;;;;;;;22.52;4.47;;;6.50;96.70;;;;;;5105852;28;20767;-87
2023/01/10 09:21:31;;;;;;;23.70;4.63;;;6.50;96.50;;;;;;5088490;28;20474;-90
2023/01/10 09:23:57;;;;;;;17.27;4.45;;;6.50;96.30;;;;;;5089294;28;20400;-90
2023/01/10 09:26:22;;;;;;;19.97;3.80;;;6.50;96.30;;;;;;5088553;28;20407;-89
2023/01/10 09:28:48;;;;;;;18.02;3.35;;;6.70;96.10;;;;;;5089373;28;20393;-89
2023/01/10 09:31:14;;;;;;;20.67;3.65;;;6.50;96.10;;;;;;5087782;28;20863;-91
2023/01/10 09:33:41;;;;;;;17.63;3.55;;;6.60;96.00;;;;;;5089450;28;20401;-90
2023/01/10 09:36:07;;;;;;;22.52;3.88;;;6.60;95.70;;;;;;5087960;28;20412;-88
2023/01/10 09:38:33;;;;;;;15.80;3.20;;;6.70;96.10;;;;;;5088930;28;20733;-89
2023/01/10 09:41:02;;;;;;;16.85;3.30;;;6.70;96.00;;;;;;5088713;28;20403;-89
2023/01/10 09:43:38;;;;;;;20.70;4.00;;;6.80;95.90;;;;;;5105129;28;20773;-89
2023/01/10 09:46:15;;;;;;;16.58;3.65;;;6.80;95.50;;;;;;5089180;28;21036;-90
2023/01/10 09:49:06;;;;;;;19.33;3.53;;;6.90;95.70;;;;;;5088039;28;20413;-90
2023/01/10 09:51:39;;;;;;;21.83;3.63;;;7.00;95.90;;;;;;5088663;28;20435;-89
2023/01/10 09:54:12;;;;;;;19.33;3.65;;;7.00;95.60;;;;;;5105771;28;20412;-89
2023/01/10 09:56:39;;;;;;;18.77;3.45;;;7.10;95.70;;;;;;5086928;28;20392;-91
2023/01/10 09:59:08;;;;;;;19.63;3.78;;;7.10;95.50;;;;;;5105698;28;20468;-89
2023/01/10 10:01:37;;;;;;;21.50;4.23;;;7.20;95.60;;;;;;5087751;28;20397;-90
2023/01/10 10:04:20;;;;;;;22.73;4.13;;;7.30;95.60;;;;;;5105866;28;20400;-89
2023/01/10 10:06:51;;;;;;;24.70;4.35;;;7.30;95.80;;;;;;5087937;28;20906;-89
2023/01/10 10:09:29;;;;;;;19.63;3.78;;;7.30;95.60;;;;;;5087869;28;20392;-89
2023/01/10 10:12:13;;;;;;;21.95;4.07;;;7.30;95.40;;;;;;5088336;28;20420;-88
2023/01/10 10:14:43;;;;;;;23.83;4.57;;;7.40;95.30;;;;;;5087020;28;20439;-89
2023/01/10 10:17:17;;;;;;;21.55;4.15;;;7.40;95.40;;;;;;5105232;28;20420;-90
2023/01/10 10:19:59;;;;;;;24.95;4.53;;;7.40;95.40;;;;;;5105044;28;20766;-90
2023/01/10 10:22:49;;;;;;;22.70;4.55;;;7.40;95.60;;;;;;5104601;28;20538;-90
2023/01/10 10:25:19;;;;;;;23.70;4.82;;;7.50;95.70;;;;;;5088697;28;20415;-91
2023/01/10 10:27:58;;;;;;;23.88;4.10;;;7.50;95.50;;;;;;5087510;28;20779;-90
2023/01/10 10:30:36;;;;;;;26.17;4.37;;;7.50;95.30;;;;;;5088329;28;20427;-89
2023/01/10 10:33:33;;;;;;;21.95;3.83;;;7.50;95.30;;;;;;5088010;28;20462;-90
2023/01/10 10:36:01;;;;;;;24.70;4.68;;;7.50;95.10;;;;;;5087012;28;20415;-91
2023/01/10 10:38:31;;;;;;;24.42;4.88;;;7.50;95.10;;;;;;5088314;28;21254;-89
2023/01/10 10:40:59;;;;;;;25.17;4.40;;;7.50;95.20;;;;;;5086704;28;20403;-89
2023/01/10 10:43:30;;;;;;;22.80;4.20;;;7.50;95.10;;;;;;5088636;28;20488;-91
2023/01/10 10:46:11;;;;;;;24.52;5.05;;;7.50;95.10;;;;;;5087506;28;20775;-91
2023/01/10 10:48:57;;;;;;;25.92;5.18;;;7.50;95.20;;;;;;5087093;28;20413;-91
2023/01/10 10:51:36;;;;;;;23.75;4.43;;;7.60;95.30;;;;;;5088082;28;20817;-89
2023/01/10 10:54:02;;;;;;;23.15;4.60;;;7.60;95.30;;;;;;5104321;28;20411;-90
2023/01/10 10:56:28;;;;;;;22.92;4.35;;;7.50;95.30;;;;;;5087597;28;20396;-91
2023/01/10 10:58:57;;;;;;;24.13;4.45;;;7.60;95.20;;;;;;5104782;28;20388;-90
2023/01/10 11:01:23;;;;;;;24.47;4.33;;;7.60;95.10;;;;;;5086832;28;20483;-90
2023/01/10 11:03:53;;;;;;;25.53;4.33;;;7.60;95.20;;;;;;5087772;28;20819;-91
2023/01/10 11:06:20;;;;;;;26.13;4.10;;;7.60;95.00;;;;;;5103729;28;20665;-91
2023/01/10 11:08:48;;;;;;;22.25;4.07;;;7.60;95.10;;;;;;5088124;28;20400;-91
2023/01/10 11:11:21;;;;;;;23.02;4.35;;;7.80;95.00;;;;;;5103492;28;20432;-92
2023/01/10 11:13:54;;;;;;;25.85;4.47;;;7.70;94.90;;;;;;5087224;28;20435;-91
2023/01/10 11:16:32;;;;;;;26.98;4.90;;;7.60;94.90;;;;;;5087894;28;21102;-92
2023/01/10 11:19:07;;;;;;;28.83;5.28;;;7.60;95.00;;;;;;5103670;28;20412;-91
2023/01/10 11:21:32;;;;;;;23.80;4.85;;;7.60;94.70;;;;;;5087864;28;20802;-89
2023/01/10 11:23:58;;;;;;;28.25;5.50;;;7.70;94.70;;;;;;5086235;28;20397;-90
2023/01/10 11:26:36;;;;;;;25.10;5.40;;;7.60;94.70;;;;;;5104252;28;20495;-91
2023/01/10 11:29:13;;;;;;;28.97;6.00;;;7.70;94.70;;;;;;5086864;28;20404;-90
2023/01/10 11:31:40;;;;;;;27.50;6.38;;;7.60;94.70;;;;;;5086715;28;20484;-90
2023/01/10 11:34:25;;;;;;;27.00;6.60;;;7.60;94.60;;;;;;5087166;28;20429;-90
2023/01/10 11:37:01;;;;;;;26.70;7.05;;;7.60;94.70;;;;;;5086463;28;20395;-89
2023/01/10 11:39:28;;;;;;;32.77;7.57;;;7.60;94.60;;;;;;5087744;28;20949;-90
2023/01/10 11:41:57;;;;;;;29.52;8.35;;;7.60;94.80;;;;;;5086641;28;20404;-90
2023/01/10 11:44:27;;;;;;;27.58;8.45;;;7.60;94.70;;;;;;5086954;28;20768;-90
2023/01/10 11:46:56;;;;;;;29.33;8.60;;;7.60;95.00;;;;;;5087162;28;20428;-91
2023/01/10 11:49:33;;;;;;;25.97;7.73;;;7.70;94.70;;;;;;5086129;28;20388;-90
2023/01/10 11:52:04;;;;;;;28.80;7.53;;;7.60;94.50;;;;;;5087218;28;20837;-89
2023/01/10 11:54:31;;;;;;;27.27;7.93;;;7.60;94.40;;;;;;5103113;28;20471;-91
2023/01/10 11:57:08;;;;;;;28.02;8.10;;;7.70;94.40;;;;;;5087324;28;20392;-92
2023/01/10 11:59:34;;;;;;;31.17;7.95;;;7.60;94.50;;;;;;5087086;28;20760;-92
2023/01/10 12:02:10;;;;;;;26.75;8.27;;;7.60;94.50;;;;;;5085773;28;20400;-91
2023/01/10 12:04:41;;;;;;;34.22;8.50;;;7.50;94.30;;;;;;5087180;28;20408;-91
2023/01/10 12:07:10;;;;;;;30.63;8.97;;;7.50;94.50;;;;;;5086059;28;20407;-91
2023/01/10 12:09:43;;;;;;;28.27;8.63;;;7.50;94.50;;;;;;5104435;28;20479;-91
2023/01/10 12:12:24;;;;;;;31.60;8.25;;;7.40;94.40;;;;;;5086111;28;20431;-92
2023/01/10 12:14:51;;;;;;;27.13;8.43;;;7.40;94.30;;;;;;5086318;28;21032;-92
2023/01/10 12:17:29;;;;;;;27.77;8.43;;;7.40;94.50;;;;;;5086955;28;20405;-91
2023/01/10 12:19:59;;;;;;;26.88;9.07;;;7.40;94.30;;;;;;5088658;28;20915;-88
2023/01/10 12:22:46;;;;;;;26.92;8.27;;;7.30;94.40;;;;;;5091190;28;21224;-92
2023/01/10 12:25:23;;;;;;;31.10;10.18;;;7.30;94.30;;;;;;5089905;28;20404;-91
2023/01/10 12:27:50;;;;;;;29.10;8.80;;;7.30;94.50;;;;;;5089287;28;20455;-89
2023/01/10 12:30:28;;;;;;;27.80;8.23;;;7.30;94.40;;;;;;5090303;28;20475;-91
2023/01/10 12:32:56;;;;;;;25.60;8.07;;;7.30;94.30;;;;;;5106341;28;20515;-91
2023/01/10 12:35:46;;;;;;;26.77;8.52;;;7.30;94.10;;;;;;5090706;28;21052;-91
2023/01/10 12:44:17;;;;;;;31.33;7.95;;;7.20;94.20;;;;;;5107157;28;20408;-91
2023/01/10 12:46:54;;;;;;;29.92;8.60;;;7.20;94.10;;;;;;5089380;28;20400;-91
2023/01/10 12:49:24;;;;;;;31.10;8.57;;;7.20;94.10;;;;;;5089385;28;20422;-89
2023/01/10 12:51:53;;;;;;;31.23;8.50;;;7.20;94.30;;;;;;5090061;28;20452;-93
2023/01/10 12:54:23;;;;;;;30.48;8.52;;;7.20;94.20;;;;;;5088994;28;20400;-90
2023/01/10 12:56:50;;;;;;;29.73;8.13;;;7.30;94.20;;;;;;5090014;28;20388;-91
2023/01/10 12:59:27;;;;;;;28.13;8.07;;;7.10;94.20;;;;;;5088751;28;20392;-90
2023/01/10 13:02:00;;;;;;;26.77;8.02;;;7.20;94.20;;;;;;5089986;28;20425;-91
2023/01/10 13:04:27;;;;;;;27.52;8.55;;;7.40;94.30;;;;;;5089610;28;20400;-91
2023/01/10 13:06:53;;;;;;;29.02;8.23;;;7.20;94.10;;;;;;5088814;28;20405;-91
2023/01/10 13:09:22;;;;;;;27.27;7.60;;;7.20;94.00;;;;;;5107136;28;20827;-89
2023/01/10 13:11:48;;;;;;;27.77;7.50;;;7.20;93.90;;;;;;5088906;28;20428;-91
2023/01/10 13:14:18;;;;;;;27.17;8.00;;;7.10;94.00;;;;;;5089821;28;20401;-91